Time;durP1;ratioP1;P1;durP2;ratioP2;P2;SDS_P1;SDS_P2;PMS_P1;PMS_P2;Temp;Humidity;BMP_temperature;BMP_pressure;BME280_temperature;BME280_humidity;BME280_pressure;Samples;Min_cycle;Max_cycle;Signal;HPM_P1;HPM_P2
2021/05/15 00:00:31;;;;;;;2.83;1.02;;;9.80;99.90;;;;;;5072495;28;20029;-75
2021/05/15 00:02:58;;;;;;;5.70;1.48;;;9.80;99.90;;;;;;5071202;28;20075;-76
2021/05/15 00:05:25;;;;;;;1.73;1.10;;;9.90;99.90;;;;;;5071076;28;20031;-75
2021/05/15 00:07:51;;;;;;;3.63;1.30;;;9.80;99.90;;;;;;5071118;28;20031;-75
2021/05/15 00:10:18;;;;;;;4.57;1.35;;;9.70;99.90;;;;;;5072320;28;20509;-75
2021/05/15 00:12:44;;;;;;;2.58;0.88;;;9.70;99.90;;;;;;5054347;28;20078;-74
2021/05/15 00:15:11;;;;;;;0.17;0.17;;;9.70;99.90;;;;;;5071239;28;20024;-74
2021/05/15 00:17:38;;;;;;;0.20;0.20;;;9.80;99.90;;;;;;5054307;28;20052;-75
2021/05/15 00:20:13;;;;;;;1.77;0.35;;;9.80;99.90;;;;;;5070837;28;20442;-75
2021/05/15 00:22:44;;;;;;;4.30;0.93;;;10.00;99.90;;;;;;5053814;28;20028;-75
2021/05/15 00:25:11;;;;;;;0.10;0.10;;;9.80;99.90;;;;;;5054089;28;20078;-74
2021/05/15 00:27:38;;;;;;;0.20;0.20;;;9.70;99.90;;;;;;5072027;28;20013;-75
2021/05/15 00:30:08;;;;;;;1.13;1.02;;;9.80;99.90;;;;;;5071283;28;20039;-75
2021/05/15 00:32:34;;;;;;;1.83;1.00;;;9.80;99.90;;;;;;5071001;28;20024;-75
2021/05/15 00:35:00;;;;;;;1.45;1.00;;;9.90;99.90;;;;;;5072070;28;20081;-75
2021/05/15 00:37:27;;;;;;;2.08;0.95;;;9.80;99.90;;;;;;5070717;28;20025;-75
2021/05/15 00:39:52;;;;;;;0.73;0.73;;;9.80;99.90;;;;;;5070804;28;20369;-75
2021/05/15 00:42:18;;;;;;;1.55;0.85;;;9.70;99.90;;;;;;5070799;28;20149;-74
2021/05/15 00:44:47;;;;;;;2.25;1.20;;;9.80;99.90;;;;;;5053879;28;20499;-75
2021/05/15 00:47:26;;;;;;;2.30;1.42;;;9.70;99.90;;;;;;5070457;28;20104;-75
2021/05/15 00:49:52;;;;;;;3.33;1.23;;;9.70;99.90;;;;;;5070942;28;20051;-75
2021/05/15 00:52:21;;;;;;;1.98;1.05;;;9.80;99.90;;;;;;5071961;28;20416;-75
2021/05/15 00:54:50;;;;;;;0.85;0.85;;;9.70;99.90;;;;;;5072177;28;20021;-75
2021/05/15 00:57:16;;;;;;;4.20;1.30;;;9.60;99.90;;;;;;5071687;28;20031;-75
2021/05/15 00:59:42;;;;;;;1.30;1.20;;;9.60;99.90;;;;;;5070568;28;20032;-75
2021/05/15 01:02:10;;;;;;;3.08;1.38;;;9.60;99.90;;;;;;5071844;28;20469;-75
2021/05/15 01:04:37;;;;;;;2.35;1.00;;;9.40;99.90;;;;;;5053784;28;20113;-75
2021/05/15 01:07:06;;;;;;;1.27;1.00;;;9.50;99.90;;;;;;5070427;28;20025;-75
2021/05/15 01:09:31;;;;;;;1.10;0.95;;;9.40;99.90;;;;;;5071639;28;20020;-74
2021/05/15 01:11:57;;;;;;;0.25;0.25;;;9.30;99.90;;;;;;5071696;28;20103;-74
2021/05/15 01:14:23;;;;;;;0.30;0.30;;;9.40;99.90;;;;;;5071780;28;20027;-75
2021/05/15 01:16:49;;;;;;;0.30;0.30;;;9.30;99.90;;;;;;5071592;28;20082;-75
2021/05/15 01:19:16;;;;;;;0.20;0.20;;;9.20;99.90;;;;;;5071736;28;20427;-75
2021/05/15 01:21:42;;;;;;;0.63;0.35;;;9.20;99.90;;;;;;5071657;28;20154;-75
2021/05/15 01:24:09;;;;;;;1.27;0.50;;;9.00;99.90;;;;;;5070252;28;20050;-75
2021/05/15 01:26:35;;;;;;;0.10;0.10;;;9.00;99.90;;;;;;5071312;28;20103;-75
2021/05/15 01:29:04;;;;;;;0.20;0.20;;;9.00;99.90;;;;;;5071645;28;20025;-75
2021/05/15 01:31:30;;;;;;;0.52;0.52;;;9.00;99.90;;;;;;5053528;28;20115;-75
2021/05/15 01:33:57;;;;;;;0.80;0.80;;;9.00;99.90;;;;;;5072180;28;20108;-75
2021/05/15 01:36:24;;;;;;;1.50;1.05;;;9.10;99.90;;;;;;5073985;28;20035;-75
2021/05/15 01:38:50;;;;;;;1.00;0.80;;;9.10;99.90;;;;;;5073936;28;20032;-75
2021/05/15 01:41:17;;;;;;;2.35;0.75;;;9.00;99.90;;;;;;5075246;28;20031;-75
2021/05/15 01:43:44;;;;;;;0.45;0.38;;;9.00;99.90;;;;;;5075127;28;20105;-75
2021/05/15 01:46:11;;;;;;;0.73;0.70;;;9.10;99.90;;;;;;5074830;28;20024;-75
2021/05/15 01:48:38;;;;;;;2.05;0.88;;;9.10;99.90;;;;;;5075017;28;20020;-75
2021/05/15 01:51:06;;;;;;;3.72;0.88;;;9.10;99.90;;;;;;5073767;28;20032;-75
2021/05/15 01:53:37;;;;;;;3.67;0.90;;;9.20;99.90;;;;;;5075025;28;20028;-75
2021/05/15 01:56:06;;;;;;;0.80;0.80;;;9.00;99.90;;;;;;5074768;28;20113;-75
2021/05/15 01:58:32;;;;;;;0.28;0.28;;;8.90;99.90;;;;;;5073725;28;20029;-75
2021/05/15 02:00:58;;;;;;;0.40;0.40;;;8.80;99.90;;;;;;5073595;28;20025;-75
2021/05/15 02:03:25;;;;;;;0.60;0.60;;;8.70;99.90;;;;;;5073368;28;20074;-74
2021/05/15 02:05:54;;;;;;;0.10;0.10;;;8.60;99.90;;;;;;5073289;28;20024;-74
2021/05/15 02:08:21;;;;;;;0.20;0.20;;;8.60;99.90;;;;;;5073443;28;20020;-75
2021/05/15 02:10:49;;;;;;;0.47;0.47;;;8.60;99.90;;;;;;5074641;28;20388;-75
2021/05/15 02:13:17;;;;;;;1.17;0.77;;;8.70;99.90;;;;;;5074609;28;20029;-74
2021/05/15 02:15:44;;;;;;;0.20;0.20;;;8.70;99.90;;;;;;5074383;28;20020;-75
2021/05/15 02:18:12;;;;;;;0.30;0.30;;;8.80;99.90;;;;;;5073263;28;20025;-75
2021/05/15 02:20:38;;;;;;;0.20;0.20;;;8.70;99.90;;;;;;5074597;28;20026;-75
2021/05/15 02:23:04;;;;;;;0.45;0.45;;;8.60;99.90;;;;;;5074420;28;20107;-74
2021/05/15 02:25:29;;;;;;;0.20;0.20;;;8.60;99.90;;;;;;5073156;28;20104;-75
2021/05/15 02:27:55;;;;;;;0.50;0.50;;;8.60;99.90;;;;;;5074188;28;20107;-75
2021/05/15 02:30:23;;;;;;;0.52;0.45;;;8.60;99.90;;;;;;5072837;28;20025;-74
2021/05/15 02:32:49;;;;;;;0.20;0.20;;;8.40;99.90;;;;;;5073003;28;20023;-75
2021/05/15 02:35:16;;;;;;;0.50;0.50;;;8.40;99.90;;;;;;5072937;28;20024;-74
2021/05/15 02:37:42;;;;;;;0.20;0.20;;;8.40;99.90;;;;;;5073932;28;20029;-74
2021/05/15 02:40:09;;;;;;;3.20;0.95;;;8.40;99.90;;;;;;5074422;28;20035;-75
2021/05/15 02:42:38;;;;;;;0.30;0.30;;;8.40;99.90;;;;;;5072907;28;20107;-74
2021/05/15 02:45:06;;;;;;;0.38;0.38;;;8.30;99.90;;;;;;5073595;28;20388;-75
2021/05/15 02:47:32;;;;;;;2.08;0.40;;;8.30;99.90;;;;;;5072644;28;20048;-75
2021/05/15 02:49:59;;;;;;;0.30;0.30;;;8.30;99.90;;;;;;5072710;28;20025;-75
2021/05/15 02:52:25;;;;;;;0.60;0.60;;;8.20;99.90;;;;;;5055913;28;20021;-75
2021/05/15 02:54:51;;;;;;;0.47;0.40;;;8.20;99.90;;;;;;5072642;28;20484;-75
2021/05/15 02:57:16;;;;;;;0.40;0.40;;;8.20;99.90;;;;;;5072256;28;20024;-75
2021/05/15 02:59:42;;;;;;;0.52;0.52;;;8.30;99.90;;;;;;5072535;28;20063;-75
2021/05/15 03:02:08;;;;;;;0.30;0.30;;;8.20;99.90;;;;;;5073497;28;20103;-75
2021/05/15 03:04:34;;;;;;;0.35;0.35;;;8.30;99.90;;;;;;5072362;28;20124;-75
2021/05/15 03:07:00;;;;;;;0.35;0.35;;;8.40;99.90;;;;;;5073243;28;20044;-75
2021/05/15 03:09:26;;;;;;;0.20;0.20;;;8.30;99.90;;;;;;5073584;28;20019;-74
2021/05/15 03:11:52;;;;;;;0.20;0.20;;;8.40;99.90;;;;;;5073507;28;20024;-74
2021/05/15 03:14:18;;;;;;;0.73;0.70;;;8.50;99.90;;;;;;5073471;28;20024;-74
2021/05/15 03:16:44;;;;;;;0.20;0.20;;;8.70;99.90;;;;;;5072099;28;20024;-74
2021/05/15 03:19:10;;;;;;;0.20;0.20;;;8.80;99.90;;;;;;5072198;28;20024;-75
2021/05/15 03:21:35;;;;;;;0.20;0.20;;;9.00;99.90;;;;;;5071999;28;20107;-75
2021/05/15 03:24:02;;;;;;;0.20;0.20;;;9.10;99.90;;;;;;5071966;28;20029;-75
2021/05/15 03:26:28;;;;;;;0.20;0.20;;;9.10;99.90;;;;;;5071676;28;20097;-75
2021/05/15 03:28:53;;;;;;;0.20;0.20;;;9.20;99.90;;;;;;5055119;28;20115;-75
2021/05/15 03:31:19;;;;;;;0.20;0.20;;;9.30;99.90;;;;;;5055734;23;20132;-73
2021/05/15 03:33:45;;;;;;;0.70;0.52;;;9.40;99.90;;;;;;5035084;28;20043;-71
2021/05/15 03:36:11;;;;;;;1.10;0.90;;;9.40;99.90;;;;;;5052812;28;20025;-71
2021/05/15 03:38:36;;;;;;;1.58;1.00;;;9.40;99.90;;;;;;5035093;28;20388;-71
2021/05/15 03:41:02;;;;;;;1.83;1.10;;;9.50;99.90;;;;;;5052864;28;20033;-73
2021/05/15 03:43:28;;;;;;;2.10;1.17;;;9.40;99.90;;;;;;5034994;28;20467;-71
2021/05/15 03:45:55;;;;;;;1.02;0.90;;;9.40;99.90;;;;;;5052676;28;20124;-71
2021/05/15 03:48:21;;;;;;;2.92;1.00;;;9.30;99.90;;;;;;5052654;28;20021;-71
2021/05/15 03:50:48;;;;;;;4.75;1.20;;;9.20;99.90;;;;;;5052679;28;20025;-73
2021/05/15 03:53:14;;;;;;;1.10;1.00;;;9.30;99.90;;;;;;5052688;28;20021;-73
2021/05/15 03:55:40;;;;;;;1.13;0.90;;;9.50;99.90;;;;;;5052457;28;20083;-72
2021/05/15 03:58:06;;;;;;;2.28;1.02;;;9.30;99.90;;;;;;5051925;28;20078;-72
2021/05/15 04:00:32;;;;;;;3.03;1.08;;;9.10;99.90;;;;;;5034751;28;20116;-72
2021/05/15 04:02:58;;;;;;;3.95;1.20;;;8.80;99.90;;;;;;5052227;28;20104;-72
2021/05/15 04:05:24;;;;;;;1.58;0.80;;;8.70;99.90;;;;;;5052502;28;20021;-72
2021/05/15 04:07:49;;;;;;;1.10;1.00;;;8.60;99.90;;;;;;5052278;28;20464;-72
2021/05/15 04:10:15;;;;;;;3.67;1.00;;;8.60;99.90;;;;;;5052430;28;20366;-72
2021/05/15 04:12:49;;;;;;;3.95;0.82;;;8.80;99.90;;;;;;5052338;28;20105;-72
2021/05/15 04:15:26;;;;;;;2.10;0.93;;;8.80;99.90;;;;;;5052341;28;20021;-73
2021/05/15 04:17:52;;;;;;;2.63;1.20;;;8.80;99.90;;;;;;5052067;28;20473;-72
2021/05/15 04:20:17;;;;;;;1.95;1.30;;;9.00;99.90;;;;;;5052144;28;20083;-73
2021/05/15 04:22:43;;;;;;;3.60;1.17;;;9.20;99.90;;;;;;5034285;28;20029;-71
2021/05/15 04:25:09;;;;;;;3.60;1.17;;;9.20;99.90;;;;;;5052047;28;20025;-73
2021/05/15 04:27:35;;;;;;;1.48;1.27;;;9.10;99.90;;;;;;5052201;28;20051;-71
2021/05/15 04:30:02;;;;;;;2.22;0.93;;;8.90;99.90;;;;;;5057654;28;20051;-72
2021/05/15 04:32:27;;;;;;;4.18;1.17;;;8.90;99.90;;;;;;5072075;28;20020;-72
2021/05/15 04:34:53;;;;;;;2.35;1.30;;;9.00;99.90;;;;;;5072031;28;20021;-72
2021/05/15 04:37:19;;;;;;;1.10;1.00;;;8.90;99.90;;;;;;5071898;28;20436;-72
2021/05/15 04:39:44;;;;;;;1.55;1.35;;;8.90;99.90;;;;;;5072042;28;20063;-72
2021/05/15 04:42:10;;;;;;;1.83;1.52;;;8.90;99.90;;;;;;5071938;28;20028;-73
2021/05/15 04:44:36;;;;;;;2.80;1.20;;;8.90;99.90;;;;;;5070804;28;20032;-73
2021/05/15 04:47:02;;;;;;;3.10;1.10;;;8.80;99.90;;;;;;5070362;28;20399;-72
2021/05/15 04:49:27;;;;;;;3.10;1.10;;;8.80;99.90;;;;;;5071832;28;20024;-72
2021/05/15 04:51:53;;;;;;;1.00;0.90;;;8.80;99.90;;;;;;5070540;28;20028;-72
2021/05/15 04:54:19;;;;;;;2.92;1.20;;;8.90;99.90;;;;;;5071857;28;20542;-72
2021/05/15 04:56:45;;;;;;;2.78;1.63;;;8.80;99.90;;;;;;5071734;28;20048;-71
2021/05/15 04:59:10;;;;;;;1.90;1.13;;;8.70;99.90;;;;;;5071964;28;20024;-72
2021/05/15 05:01:36;;;;;;;1.92;1.15;;;8.70;99.90;;;;;;5071567;28;20032;-72
2021/05/15 05:04:03;;;;;;;5.47;1.20;;;8.80;99.90;;;;;;5071713;28;20060;-72
2021/05/15 05:06:29;;;;;;;2.70;1.10;;;9.00;99.90;;;;;;5071584;28;20086;-72
2021/05/15 05:08:55;;;;;;;1.35;1.25;;;9.10;99.90;;;;;;5073852;28;20039;-73
2021/05/15 05:11:21;;;;;;;1.23;0.95;;;9.10;99.90;;;;;;5075790;28;20054;-72
2021/05/15 05:13:46;;;;;;;2.63;1.35;;;9.00;99.90;;;;;;5075603;28;20416;-72
2021/05/15 05:16:12;;;;;;;2.70;1.10;;;9.10;99.90;;;;;;5075550;28;20488;-72
2021/05/15 05:18:38;;;;;;;1.80;0.93;;;9.30;99.90;;;;;;5074267;28;20055;-72
2021/05/15 05:21:04;;;;;;;2.40;1.35;;;9.60;99.90;;;;;;5075589;28;20020;-73
2021/05/15 05:23:29;;;;;;;3.20;0.98;;;9.90;99.90;;;;;;5075611;28;20033;-73
2021/05/15 05:25:55;;;;;;;2.70;1.17;;;9.70;99.90;;;;;;5075309;28;20048;-74
2021/05/15 05:28:26;;;;;;;2.58;1.25;;;9.80;99.90;;;;;;5075412;28;20086;-73
2021/05/15 05:30:52;;;;;;;1.50;1.27;;;9.90;99.90;;;;;;5075281;28;20031;-73
2021/05/15 05:33:18;;;;;;;2.65;1.05;;;9.90;99.90;;;;;;5075292;28;20021;-73
2021/05/15 05:35:43;;;;;;;1.13;1.10;;;10.00;99.90;;;;;;5073908;28;20095;-73
2021/05/15 05:38:10;;;;;;;1.42;0.93;;;10.00;99.90;;;;;;5075183;28;20038;-73
2021/05/15 05:40:35;;;;;;;1.73;1.10;;;9.90;99.90;;;;;;5075204;28;20033;-73
2021/05/15 05:43:01;;;;;;;2.08;1.15;;;10.10;99.90;;;;;;5074994;28;20111;-73
2021/05/15 05:45:27;;;;;;;2.92;1.13;;;10.00;99.90;;;;;;5075008;28;20039;-73
2021/05/15 05:47:53;;;;;;;2.78;1.10;;;10.00;99.90;;;;;;5075035;28;20027;-73
2021/05/15 05:50:19;;;;;;;2.00;1.25;;;9.90;99.90;;;;;;5074996;28;20052;-73
2021/05/15 05:52:44;;;;;;;3.58;1.33;;;10.00;99.90;;;;;;5074942;28;20024;-73
2021/05/15 05:55:10;;;;;;;5.80;1.30;;;10.00;99.90;;;;;;5074782;28;20373;-73
2021/05/15 05:57:36;;;;;;;3.22;1.08;;;10.10;99.90;;;;;;5056661;28;20060;-73
2021/05/15 06:00:05;;;;;;;3.60;1.08;;;10.10;99.90;;;;;;5074780;28;20476;-73
2021/05/15 06:02:30;;;;;;;1.58;0.80;;;10.20;99.90;;;;;;5074534;28;20067;-73
2021/05/15 06:04:56;;;;;;;1.95;1.05;;;10.20;99.90;;;;;;5074548;28;20492;-73
2021/05/15 06:07:22;;;;;;;0.95;0.90;;;10.30;99.90;;;;;;5074400;28;20013;-73
2021/05/15 06:09:48;;;;;;;1.15;1.00;;;10.30;99.90;;;;;;5074656;28;20024;-72
2021/05/15 06:12:14;;;;;;;2.55;1.17;;;10.20;99.90;;;;;;5074510;28;20031;-73
2021/05/15 06:14:40;;;;;;;3.65;0.82;;;10.20;99.90;;;;;;5074586;28;20379;-73
2021/05/15 06:17:07;;;;;;;2.05;0.95;;;10.40;99.90;;;;;;5074339;28;20021;-73
2021/05/15 06:19:33;;;;;;;3.70;0.95;;;10.40;99.90;;;;;;5073928;28;20538;-73
2021/05/15 06:21:58;;;;;;;2.90;1.08;;;10.50;99.90;;;;;;5073112;28;20028;-73
2021/05/15 06:24:25;;;;;;;1.02;0.93;;;10.60;99.90;;;;;;5074288;28;20024;-73
2021/05/15 06:26:51;;;;;;;4.75;1.15;;;10.80;99.90;;;;;;5072726;28;20052;-73
2021/05/15 06:29:17;;;;;;;1.25;0.90;;;11.00;99.90;;;;;;5074178;28;20017;-73
2021/05/15 06:31:43;;;;;;;3.75;0.93;;;11.20;99.90;;;;;;5074081;28;20094;-73
2021/05/15 06:34:09;;;;;;;1.00;0.90;;;11.30;99.90;;;;;;5074153;28;20021;-73
2021/05/15 06:36:34;;;;;;;32.85;7.90;;;11.30;99.90;;;;;;5073840;28;20060;-74
2021/05/15 06:39:00;;;;;;;3.28;1.35;;;11.20;99.90;;;;;;5073988;28;20396;-73
2021/05/15 06:41:26;;;;;;;1.20;0.98;;;11.20;99.90;;;;;;5074054;28;20024;-73
2021/05/15 06:43:52;;;;;;;2.45;1.00;;;11.30;99.90;;;;;;5074018;28;20032;-73
2021/05/15 06:46:18;;;;;;;1.35;0.73;;;11.50;99.90;;;;;;5072203;28;20042;-73
2021/05/15 06:48:44;;;;;;;2.08;0.93;;;11.40;99.90;;;;;;5073865;28;20021;-73
2021/05/15 06:51:09;;;;;;;2.63;0.90;;;11.40;99.90;;;;;;5072498;28;20478;-73
2021/05/15 06:53:35;;;;;;;4.00;1.20;;;11.30;99.90;;;;;;5073803;28;20541;-73
2021/05/15 06:56:01;;;;;;;2.65;0.95;;;11.40;99.90;;;;;;5073576;28;20031;-73
2021/05/15 06:58:27;;;;;;;1.35;0.80;;;11.40;99.90;;;;;;5072366;28;20106;-73
2021/05/15 07:00:52;;;;;;;3.80;0.88;;;11.40;99.90;;;;;;5073554;28;20025;-73
2021/05/15 07:03:18;;;;;;;4.10;1.02;;;11.30;99.90;;;;;;5076403;28;20058;-73
2021/05/15 07:05:44;;;;;;;2.47;0.80;;;11.40;99.90;;;;;;5089734;28;20028;-73
2021/05/15 07:08:10;;;;;;;1.77;0.80;;;11.40;99.90;;;;;;5073548;28;20032;-73
2021/05/15 07:10:37;;;;;;;2.88;1.08;;;11.40;99.90;;;;;;5078285;28;20056;-73
2021/05/15 07:13:02;;;;;;;2.13;0.70;;;11.40;99.90;;;;;;5092347;28;20023;-73
2021/05/15 07:15:28;;;;;;;2.35;0.77;;;11.30;99.90;;;;;;5092362;28;20507;-73
2021/05/15 07:17:54;;;;;;;3.30;1.13;;;11.40;99.90;;;;;;5093251;28;20111;-73
2021/05/15 07:20:20;;;;;;;0.85;0.85;;;11.50;99.90;;;;;;5093211;28;20024;-73
2021/05/15 07:22:46;;;;;;;4.05;0.80;;;11.40;99.90;;;;;;5093360;28;20085;-73
2021/05/15 07:25:12;;;;;;;0.57;0.57;;;11.40;99.90;;;;;;5075056;28;20028;-73
2021/05/15 07:27:39;;;;;;;3.03;1.50;;;11.40;99.90;;;;;;5091939;28;20048;-73
2021/05/15 07:30:06;;;;;;;3.70;1.00;;;11.50;99.90;;;;;;5075529;28;20033;-73
2021/05/15 07:32:32;;;;;;;1.45;0.70;;;11.60;99.90;;;;;;5071549;28;20059;-73
2021/05/15 07:34:58;;;;;;;2.10;0.80;;;11.70;99.90;;;;;;5071525;28;20432;-73
2021/05/15 07:37:24;;;;;;;2.92;1.00;;;11.80;99.90;;;;;;5072752;28;20468;-73
2021/05/15 07:39:50;;;;;;;1.85;0.70;;;11.70;99.90;;;;;;5072730;28;20380;-73
2021/05/15 07:42:16;;;;;;;1.98;0.70;;;11.80;98.50;;;;;;5072712;28;20077;-73
2021/05/15 07:44:42;;;;;;;2.35;0.68;;;11.90;96.60;;;;;;5072634;28;20503;-73
2021/05/15 07:47:08;;;;;;;1.23;0.55;;;12.20;96.60;;;;;;5070957;28;20058;-73
2021/05/15 07:49:34;;;;;;;9.93;0.95;;;12.60;95.70;;;;;;5072563;28;20040;-73
2021/05/15 07:52:00;;;;;;;4.30;0.70;;;13.10;94.80;;;;;;5071418;28;20036;-73
2021/05/15 07:54:26;;;;;;;3.00;1.35;;;13.40;90.90;;;;;;5071221;28;20375;-73
2021/05/15 07:56:51;;;;;;;3.35;0.90;;;13.40;80.40;;;;;;5070982;28;20523;-73
2021/05/15 07:59:17;;;;;;;1.20;0.70;;;13.40;77.30;;;;;;5071382;28;20108;-73
2021/05/15 08:01:44;;;;;;;2.70;0.90;;;13.70;76.30;;;;;;5072010;28;20028;-73
2021/05/15 08:04:10;;;;;;;5.55;1.17;;;14.00;75.60;;;;;;5072375;28;20078;-73
2021/05/15 08:06:36;;;;;;;0.90;0.63;;;13.80;73.20;;;;;;5072067;28;20020;-73
2021/05/15 08:09:03;;;;;;;1.50;0.80;;;14.20;73.90;;;;;;5072333;28;20013;-73
2021/05/15 08:11:29;;;;;;;0.98;0.60;;;14.60;71.90;;;;;;5072203;28;20052;-73
2021/05/15 08:13:55;;;;;;;1.23;0.57;;;14.60;69.30;;;;;;5071980;28;20025;-73
2021/05/15 08:16:21;;;;;;;2.38;0.73;;;14.40;70.00;;;;;;5071935;28;20025;-73
2021/05/15 08:18:46;;;;;;;0.68;0.57;;;14.20;67.80;;;;;;5072332;28;20507;-73
2021/05/15 08:21:12;;;;;;;1.08;0.63;;;14.20;68.80;;;;;;5072184;28;20389;-73
2021/05/15 08:23:40;;;;;;;3.60;0.60;;;14.40;69.40;;;;;;5072222;28;20028;-73
2021/05/15 08:26:10;;;;;;;1.65;0.90;;;14.90;70.10;;;;;;5071859;28;20036;-73
2021/05/15 08:28:44;;;;;;;1.08;0.65;;;15.10;65.70;;;;;;5072074;28;20021;-73
2021/05/15 08:31:10;;;;;;;3.20;1.20;;;15.40;65.80;;;;;;5053945;28;20024;-73
2021/05/15 08:33:36;;;;;;;0.20;0.20;;;15.00;66.00;;;;;;5072040;28;20028;-73
2021/05/15 08:36:03;;;;;;;0.13;0.13;;;14.80;68.60;;;;;;5071912;28;20027;-73
2021/05/15 08:38:29;;;;;;;0.10;0.10;;;15.30;69.10;;;;;;5072045;28;20024;-73
2021/05/15 08:40:55;;;;;;;1.77;0.90;;;15.10;65.90;;;;;;5070719;28;20028;-73
2021/05/15 08:43:21;;;;;;;2.05;0.57;;;14.70;64.80;;;;;;5071413;28;20040;-73
2021/05/15 08:45:51;;;;;;;1.58;0.70;;;14.80;64.10;;;;;;5071620;28;20527;-73
2021/05/15 08:48:19;;;;;;;1.00;0.60;;;15.20;65.20;;;;;;5071814;28;20024;-73
2021/05/15 08:50:46;;;;;;;2.35;0.70;;;15.50;63.90;;;;;;5071900;28;20380;-73
2021/05/15 08:53:13;;;;;;;1.08;0.55;;;15.90;61.90;;;;;;5071759;28;20353;-73
2021/05/15 08:55:39;;;;;;;4.38;0.65;;;16.50;60.80;;;;;;5070261;28;20074;-73
2021/05/15 08:58:06;;;;;;;1.08;0.85;;;16.80;58.00;;;;;;5071753;28;20028;-73
2021/05/15 09:00:36;;;;;;;0.10;0.10;;;16.90;58.80;;;;;;5070304;28;20028;-73
2021/05/15 09:03:08;;;;;;;0.10;0.10;;;17.20;58.70;;;;;;5071765;28;20476;-73
2021/05/15 09:05:36;;;;;;;0.15;0.15;;;17.40;57.30;;;;;;5071619;28;20027;-73
2021/05/15 09:08:04;;;;;;;0.10;0.10;;;17.40;56.00;;;;;;5071661;28;20025;-73
2021/05/15 09:10:34;;;;;;;0.10;0.10;;;17.60;56.10;;;;;;5071755;28;20012;-73
2021/05/15 09:13:22;;;;;;;0.10;0.10;;;17.90;56.30;;;;;;5071389;28;20032;-74
2021/05/15 09:15:59;;;;;;;0.22;0.22;;;18.10;56.00;;;;;;5070198;28;20047;-73
2021/05/15 09:18:33;;;;;;;0.10;0.10;;;18.20;54.40;;;;;;5071523;28;20119;-73
2021/05/15 09:21:03;;;;;;;0.17;0.17;;;17.90;54.20;;;;;;5071429;28;20032;-73
2021/05/15 09:23:31;;;;;;;0.10;0.10;;;17.70;55.60;;;;;;5071429;28;20545;-73
2021/05/15 09:26:12;;;;;;;0.10;0.10;;;17.80;56.40;;;;;;5071268;28;20032;-73
2021/05/15 09:28:44;;;;;;;0.38;0.20;;;17.10;56.20;;;;;;5071383;28;20086;-73
2021/05/15 09:31:30;;;;;;;0.10;0.10;;;16.70;56.30;;;;;;5092263;23;20043;-75
2021/05/15 09:34:07;;;;;;;0.10;0.10;;;16.70;56.80;;;;;;5091387;28;20020;-75
2021/05/15 09:36:38;;;;;;;0.10;0.10;;;16.60;55.70;;;;;;5089927;28;20030;-75
2021/05/15 09:39:21;;;;;;;0.10;0.10;;;16.60;57.30;;;;;;5091623;28;20431;-76
2021/05/15 09:41:51;;;;;;;0.20;0.20;;;16.60;57.10;;;;;;5091849;28;20032;-75
2021/05/15 09:44:24;;;;;;;0.10;0.10;;;16.40;56.80;;;;;;5089270;28;20058;-76
2021/05/15 09:46:51;;;;;;;0.10;0.10;;;16.20;58.00;;;;;;5090297;28;20107;-75
2021/05/15 09:49:24;;;;;;;0.88;0.40;;;16.20;56.70;;;;;;5091386;28;20027;-75
2021/05/15 09:51:56;;;;;;;1.23;0.60;;;16.20;56.80;;;;;;5107160;28;20024;-76
2021/05/15 09:54:28;;;;;;;0.65;0.45;;;16.20;57.40;;;;;;5090837;28;20020;-75
2021/05/15 09:56:56;;;;;;;;;;;16.10;56.90;;;;;;5093841;28;20390;-75
2021/05/15 09:59:27;;;;;;;2.55;0.70;;;16.00;56.10;;;;;;5094948;28;19904;-76
2021/05/15 10:01:56;;;;;;;7.22;1.20;;;16.10;56.90;;;;;;5093737;28;20032;-76
2021/05/15 10:04:24;;;;;;;2.78;0.65;;;16.10;57.50;;;;;;5094083;28;20097;-75
2021/05/15 10:06:51;;;;;;;13.57;0.88;;;16.10;57.40;;;;;;5113037;28;20032;-82
2021/05/15 10:09:31;;;;;;;0.57;0.43;;;16.30;56.90;;;;;;5111646;28;20103;-76
2021/05/15 10:11:58;;;;;;;7.35;1.00;;;16.50;56.00;;;;;;5110345;28;20016;-75
2021/05/15 10:14:24;;;;;;;1.42;0.50;;;16.30;57.00;;;;;;5076625;28;20020;-75
2021/05/15 10:16:50;;;;;;;0.98;0.50;;;16.00;57.60;;;;;;5076484;28;20081;-75
2021/05/15 10:19:16;;;;;;;1.95;0.50;;;15.70;57.90;;;;;;5093456;28;20384;-75
2021/05/15 10:21:43;;;;;;;7.35;2.45;;;15.70;58.20;;;;;;5093872;28;20030;-74
2021/05/15 10:24:20;;;;;;;2.50;0.70;;;15.90;59.00;;;;;;5093326;28;20115;-75
2021/05/15 10:26:57;;;;;;;1.67;1.15;;;15.70;57.70;;;;;;5094279;28;20080;-75
2021/05/15 10:29:37;;;;;;;1.80;0.70;;;15.70;57.90;;;;;;5094516;28;20020;-75
2021/05/15 10:32:03;;;;;;;0.95;0.57;;;15.50;57.50;;;;;;5110730;28;20027;-75
2021/05/15 10:34:33;;;;;;;3.50;1.10;;;15.30;56.90;;;;;;5114794;28;20028;-75
2021/05/15 10:37:01;;;;;;;1.10;0.43;;;15.30;57.40;;;;;;5114642;28;20083;-75
2021/05/15 10:39:29;;;;;;;1.17;0.50;;;15.40;57.50;;;;;;5096582;28;20023;-75
2021/05/15 10:41:57;;;;;;;1.27;0.63;;;15.60;59.20;;;;;;5114715;28;20364;-75
2021/05/15 10:44:23;;;;;;;1.35;0.52;;;15.60;58.00;;;;;;5114605;28;20521;-75
2021/05/15 10:46:51;;;;;;;1.77;0.77;;;15.50;58.10;;;;;;5114369;28;20019;-74
2021/05/15 10:49:24;;;;;;;3.10;0.55;;;15.70;56.80;;;;;;5096159;28;20111;-75
2021/05/15 10:52:10;;;;;;;1.27;0.88;;;15.80;57.20;;;;;;5079296;28;20024;-75
2021/05/15 10:54:44;;;;;;;1.95;0.73;;;15.60;56.20;;;;;;5096140;28;20453;-75
2021/05/15 10:57:15;;;;;;;0.68;0.55;;;15.90;57.00;;;;;;5114295;28;20020;-75
2021/05/15 10:59:43;;;;;;;0.88;0.52;;;16.20;56.00;;;;;;5079230;28;20088;-75
2021/05/15 11:02:12;;;;;;;2.65;0.70;;;16.20;57.90;;;;;;5096022;28;20038;-75
2021/05/15 11:04:49;;;;;;;1.70;0.80;;;16.30;58.80;;;;;;5079072;28;20034;-75
2021/05/15 11:07:17;;;;;;;1.58;0.50;;;16.80;57.80;;;;;;5078195;28;20037;-74
2021/05/15 11:09:59;;;;;;;0.63;0.60;;;16.90;56.10;;;;;;5095957;28;20425;-75
2021/05/15 11:12:29;;;;;;;1.02;0.50;;;16.90;56.70;;;;;;5113825;28;20020;-75
2021/05/15 11:15:04;;;;;;;1.95;0.85;;;17.30;55.60;;;;;;5096734;28;20475;-75
2021/05/15 11:17:31;;;;;;;2.58;1.00;;;18.00;54.60;;;;;;5096017;28;20034;-73
2021/05/15 11:19:59;;;;;;;1.95;0.60;;;18.40;53.60;;;;;;5096558;28;20027;-73
2021/05/15 11:22:42;;;;;;;1.52;0.80;;;18.90;52.20;;;;;;5096041;28;20049;-74
2021/05/15 11:25:14;;;;;;;3.15;0.80;;;19.50;49.60;;;;;;5114417;28;20023;-73
2021/05/15 11:27:49;;;;;;;0.77;0.52;;;19.10;50.00;;;;;;5114152;28;20027;-74
2021/05/15 11:30:27;;;;;;;0.95;0.60;;;19.70;50.80;;;;;;5079041;28;20062;-74
2021/05/15 11:33:00;;;;;;;0.68;0.68;;;20.20;48.50;;;;;;5095890;28;20023;-74
2021/05/15 11:35:27;;;;;;;0.30;0.30;;;20.20;46.90;;;;;;5079167;28;20024;-73
2021/05/15 11:38:09;;;;;;;0.10;0.10;;;19.20;49.00;;;;;;5113898;28;20085;-72
2021/05/15 11:40:39;;;;;;;;;;;19.40;50.20;;;;;;5114341;28;20116;-72
2021/05/15 11:43:07;;;;;;;0.43;0.30;;;19.60;48.30;;;;;;5095636;28;20050;-72
2021/05/15 11:45:34;;;;;;;0.40;0.40;;;19.60;47.40;;;;;;5113693;28;20019;-72
2021/05/15 11:48:19;;;;;;;0.35;0.30;;;19.40;47.80;;;;;;5114129;28;20490;-75
2021/05/15 11:50:59;;;;;;;1.55;0.50;;;19.20;46.80;;;;;;5114248;28;20394;-75
2021/05/15 11:53:26;;;;;;;0.32;0.32;;;19.60;46.90;;;;;;5113741;28;20381;-75
2021/05/15 11:55:52;;;;;;;1.55;0.38;;;19.60;47.60;;;;;;5095276;28;20116;-72
2021/05/15 11:58:19;;;;;;;2.08;0.80;;;19.60;48.70;;;;;;5113578;28;20490;-72
2021/05/15 12:00:45;;;;;;;3.42;0.95;;;19.40;48.40;;;;;;5078239;28;20483;-72
2021/05/15 12:03:11;;;;;;;1.75;0.40;;;19.10;49.80;;;;;;5095364;28;20047;-72
2021/05/15 12:05:37;;;;;;;1.33;0.50;;;18.90;49.20;;;;;;5113166;28;20118;-72
2021/05/15 12:08:11;;;;;;;1.30;0.77;;;18.90;49.60;;;;;;5094960;28;20047;-72
2021/05/15 12:10:37;;;;;;;0.43;0.43;;;19.30;48.70;;;;;;5113264;28;20047;-72
2021/05/15 12:13:03;;;;;;;0.10;0.10;;;19.50;48.40;;;;;;5094711;28;20047;-72
2021/05/15 12:15:30;;;;;;;4.25;0.30;;;19.20;48.60;;;;;;5113292;28;20028;-75
2021/05/15 12:17:59;;;;;;;1.83;0.98;;;18.70;50.00;;;;;;5094548;28;20028;-75
2021/05/15 12:20:30;;;;;;;3.38;0.63;;;18.70;50.40;;;;;;5113402;28;20059;-77
2021/05/15 12:23:13;;;;;;;0.77;0.40;;;18.40;51.60;;;;;;5113375;28;20368;-76
2021/05/15 12:25:41;;;;;;;2.63;0.70;;;18.30;52.60;;;;;;5113293;28;20586;-76
2021/05/15 12:28:21;;;;;;;4.10;0.80;;;18.30;52.60;;;;;;5113234;28;20015;-76
2021/05/15 12:30:48;;;;;;;0.82;0.50;;;18.30;52.70;;;;;;5094681;28;20115;-75
2021/05/15 12:33:17;;;;;;;0.70;0.65;;;18.10;53.30;;;;;;5113528;28;20034;-74
2021/05/15 12:35:56;;;;;;;1.02;0.93;;;18.10;52.40;;;;;;5094856;28;20027;-74
2021/05/15 12:38:22;;;;;;;1.67;0.85;;;18.10;52.40;;;;;;5113031;28;20020;-74
2021/05/15 12:40:48;;;;;;;2.55;0.90;;;18.10;52.60;;;;;;5113162;28;20068;-74
2021/05/15 12:43:14;;;;;;;1.08;0.65;;;18.00;54.10;;;;;;5095027;28;20024;-74
2021/05/15 12:45:41;;;;;;;1.95;0.70;;;17.50;53.90;;;;;;5094601;28;20023;-72
2021/05/15 12:48:41;;;;;;;1.85;0.60;;;17.50;54.70;;;;;;5112478;28;20052;-76
2021/05/15 12:51:10;;;;;;;1.75;0.73;;;17.50;54.70;;;;;;5112420;28;20019;-76
2021/05/15 12:53:36;;;;;;;1.52;1.08;;;17.40;53.80;;;;;;5093926;28;20028;-76
2021/05/15 12:56:03;;;;;;;0.85;0.73;;;17.20;55.60;;;;;;5093870;28;20482;-76